Sand Spring Valley, Nevada Weather observations

Data are for 10 minute period ending at time listed.
 Day   Time   Solar   Ave.   Ave.  Ave.  Vector  Max.   Baro.   Total    
  of    of     Rad.   Air    Rel.  Wind   Wind   Wind  Press.  Precip.   
Year   Day            Temp.  Hum.  Speed  Dir.   Gust                    
2014   (PST)  Kw/m2    F      %     mph   deg.    mph    mb.     in.     
-------------------------------------------------------------------------
 233   19:00   0.00   72.6    36   13.4   190    19.4   852.9    0.00 
 233   19:10   0.00   72.2    36   12.2   189    20.5   852.9    0.00 
 233   19:20   0.00   72.1    36   11.1   185    16.0   853.0    0.00 
 233   19:30   0.00   72.5    34    9.6   181    14.0   853.1    0.00 
 233   19:40   0.00   71.8    36    7.4   184    10.6   853.3    0.00 
 233   19:50   0.00   71.7    35    7.7   165    13.1   853.4    0.00 
 233   20:00   0.00   71.2    36    7.5   156    14.5   853.4    0.00 
 233   20:10   0.00   71.3    35    8.2   168    13.0   853.4    0.00 
 233   20:20   0.00   72.1    34    9.2   176    12.8   853.4    0.00 
 233   20:30   0.00   71.9    34    9.0   171    14.2   853.5    0.00 
 233   20:40   0.00   70.7    37    6.9   151    13.4   853.5    0.00 
 233   20:50   0.00   68.3    43    2.0   137     7.1   853.6    0.00 
 233   21:00   0.00   67.8    43    2.2   354     4.7   853.6    0.00 
 233   21:10   0.00   69.0    41    3.4    14     6.7   853.6    0.00 
 233   21:20   0.00   67.6    45    3.6    27     5.5   853.6    0.00 
 233   21:30   0.00   65.0    51    4.3    49     5.7   853.5    0.00 
 233   21:40   0.00   65.7    49    5.8    61     9.7   853.4    0.00 
 233   21:50   0.00   65.8    49    8.4    68    12.5   853.4    0.00 
 233   22:00   0.00   67.5    45    7.5    76    15.9   853.3    0.00 
 233   22:10   0.00   68.8    42    8.0    83    14.6   853.3    0.00 
 233   22:20   0.00   69.1    41    7.6    82    15.4   853.4    0.00 
 233   22:30   0.00   66.3    47    5.8    78    10.2   853.4    0.00 
 233   22:40   0.00   68.3    42    7.0   103    12.0   853.4    0.00 
 233   22:50   0.00   66.9    46    6.4   118     9.9   853.5    0.00 
 233   23:00   0.00   66.2    47    5.8   137    16.4   853.5    0.00 
 233   23:10   0.00   66.3    47    5.9   133    10.7   853.6    0.00 
 233   23:20   0.00   66.3    47    5.5   179    11.8   853.6    0.00 
 233   23:30   0.00   66.1    48    5.9   157    10.0   853.7    0.00 
 233   23:40   0.00   66.0    48    3.6   187     8.1   853.8    0.00 
 233   23:50   0.00   67.2    45    4.6   157    10.6   853.7    0.00 
 234    0:00   0.00   65.5    50    6.3   138    11.8   853.8    0.00 
 234    0:10   0.00   66.8    46    7.3   164    15.1   853.8    0.00 
 234    0:20   0.00   66.1    48    5.2   174    10.4   853.8    0.00 
 234    0:30   0.00   65.5    51    4.9   157    12.2   853.8    0.00 
 234    0:40   0.00   66.4    47    7.2   208    15.3   853.7    0.00 
 234    0:50   0.00   67.2    45    4.8   169    11.9   853.7    0.00 
 234    1:00   0.00   65.4    49    7.5   135    13.4   853.7    0.00 
 234    1:10   0.00   64.5    51    5.9   184    12.7   853.7    0.00 
 234    1:20   0.00   66.6    44    9.2   175    29.7   853.6    0.00 
 234    1:30   0.00   68.1    41    6.4   148    13.7   853.7    0.00 
 234    1:40   0.00   66.8    43    7.5   152    17.6   853.7    0.00 
 234    1:50   0.00   67.5    41    4.5   185    14.4   853.7    0.00 
 234    2:00   0.00   66.9    42    4.5   210    11.1   853.7    0.00 
 234    2:10   0.00   66.9    43    3.8   203    17.2   853.8    0.00 
 234    2:20   0.00   65.3    47    2.6   120     6.6   853.9    0.00 
 234    2:30   0.00   65.2    47    6.6   103    15.9   853.8    0.00 
 234    2:40   0.00   64.7    49    4.4   232     8.7   853.7    0.00 
 234    2:50   0.00   62.9    53    2.4   325     6.1   853.7    0.00 
 234    3:00   0.00   63.0    51    1.2    44     4.7   853.6    0.00 
 234    3:10   0.00   64.7    48    5.3   170    13.6   853.6    0.00 
 234    3:20   0.00   63.6    50    3.9   199     8.5   853.7    0.00 
 234    3:30   0.00   61.9    54    1.9    59     5.5   853.7    0.00 
 234    3:40   0.00   60.0    59    2.7   293     6.0   853.7    0.00 
 234    3:50   0.00   55.7    68    3.1   105     7.5   853.6    0.00 
 234    4:00   0.00   54.2    73    6.2   135     8.8   853.5    0.00 
 234    4:10   0.00   54.1    76    5.4   121     8.4   853.4    0.00 
 234    4:20   0.00   54.8    74    2.7    84     8.6   853.3    0.00 
 234    4:30   0.00   55.3    72    1.3     6     2.8   853.3    0.00 
 234    4:40   0.00   55.9    69    0.1     0     1.5   853.4    0.00 
 234    4:50   0.00   54.9    72    0.4   339     1.8   853.4    0.00 
 234    5:00   0.00   55.1    71    0.4   317     3.9   853.4    0.00 
 234    5:10   0.00   53.1    76    1.4   192     5.6   853.5    0.00 
 234    5:20   0.01   54.4    73    0.3   179     1.5   853.5    0.00 
 234    5:30   0.03   54.3    73    2.0   281     4.2   853.4    0.00 
 234    5:40   0.04   54.4    73    1.4   236     3.7   853.4    0.00 
 234    5:50   0.07   52.9    81    1.9   294     3.4   853.4    0.00 
 234    6:00   0.10   54.2    80    1.3   282     3.4   853.5    0.00 
 234    6:10   0.12   55.7    78    1.4   308     3.0   853.6    0.00 
 234    6:20   0.12   58.5    65    0.8   342     3.4   853.6    0.00 
 234    6:30   0.18   59.8    66    0.6    38     3.0   853.6    0.00 
 234    6:40   0.15   61.6    63    0.0     0     0.0   853.6    0.00 
 234    6:50   0.15   62.4    60    0.7    39     1.9   853.6    0.00 
 234    7:00   0.26   63.2    61    2.0    73     4.1   853.6    0.00 
 234    7:10   0.32   63.7    59    1.8    98     3.6   853.7    0.00 
 234    7:20   0.31   66.0    53    1.6   110     4.5   853.7    0.00 
 234    7:30   0.39   67.3    52    2.6    79     6.1   853.7    0.00 
 234    7:40   0.41   68.9    52    2.0   202     5.0   853.7    0.00 
 234    7:50   0.41   69.5    50    4.4   134     8.4   853.7    0.00 
 234    8:00   0.37   70.1    50    5.8   123    12.1   853.8    0.00 
 234    8:10   0.48   70.6    46    5.0   140     9.7   853.7    0.00 
 234    8:20   0.54   71.7    46    4.9   169    14.6   853.7    0.00 
 234    8:30   0.57   71.6    47    6.2   139     9.9   853.7    0.00 
 234    8:40   0.60   71.5    47    7.1   144    13.8   853.6    0.00 
 234    8:50   0.52   72.9    43    7.3   191    14.1   853.4    0.00 
 234    9:00   0.65   73.3    40   12.3   192    19.4   853.3    0.00 
 234    9:10   0.63   74.8    36   12.3   179    23.5   853.3    0.00 
 234    9:20   0.64   74.0    38   14.7   186    21.9   853.2    0.00 
 234    9:30   0.70   74.8    38   13.3   187    19.7   853.2    0.00 
 234    9:40   0.73   74.8    37   15.1   186    22.0   853.1    0.00 
 234    9:50   0.76   74.2    41   13.5   196    19.1   853.1    0.00 
 234   10:00   0.78   74.7    40   13.3   194    18.6   853.1    0.00 
 234   10:10   0.79   74.2    43   14.4   206    23.5   853.0    0.00 
 234   10:20   0.81   75.4    37   15.8   189    23.2   852.9    0.00 
 234   10:30   0.82   74.8    44   12.7   204    19.5   852.9    0.00 
 234   10:40   0.75   74.9    40   13.2   207    22.5   852.8    0.00 
 234   10:50   0.72   76.3    38   12.1   192    17.8   852.7    0.00 
 234   11:00   0.86   77.8    32   14.7   173    20.5   852.5    0.00 
 234   11:10   0.86   77.9    32   15.2   184    22.7   852.4    0.00 
 234   11:20   0.87   77.4    35   14.1   193    21.0   852.3    0.00 
 234   11:30   0.88   77.8    34   14.8   192    23.1   852.2    0.00 
 234   11:40   0.88   78.7    33   16.6   189    28.1   852.0    0.00 
 234   11:50   0.88   79.2    32   14.9   183    22.1   851.8    0.00 
 234   12:00   0.88   78.5    32   16.4   187    23.2   851.7    0.00 
 234   12:10   0.88   78.6    34   16.3   198    22.2   851.6    0.00 
 234   12:20   0.88   78.5    33   17.7   195    24.3   851.6    0.00 
 234   12:30   0.87   78.6    33   15.6   194    25.5   851.5    0.00 
 234   12:40   0.86   80.6    28   17.4   183    24.3   851.3    0.00 
 234   12:50   0.85   79.8    30   14.0   190    21.5   851.3    0.00 
 234   13:00   0.77   79.2    34   12.4   196    22.1   851.1    0.00 
 234   13:10   0.83   78.4    33   15.9   193    22.7   850.9    0.00 
 234   13:20   0.82   79.5    30   17.3   191    25.1   850.7    0.00 
 234   13:30   0.74   78.1    35   16.5   203    29.4   850.6    0.00 
 234   13:40   0.79   78.9    31   18.8   192    27.4   850.4    0.00 
 234   13:50   0.77   80.5    29   17.7   186    24.8   850.2    0.00 
 234   14:00   0.75   80.4    29   18.0   183    27.0   850.1    0.00 
 234   14:10   0.74   80.4    29   18.0   188    25.8   850.0    0.00 
 234   14:20   0.71   80.7    28   18.2   176    28.1   849.7    0.00 
 234   14:30   0.69   80.7    28   20.0   183    29.0   849.6    0.00 
 234   14:40   0.67   81.6    26   19.9   186    31.8   849.5    0.00 
 234   14:50   0.65   80.8    27   20.4   187    29.4   849.3    0.00 
 234   15:00   0.53   79.6    30   18.6   195    28.9   849.2    0.00 
 234   15:10   0.15   77.0    32   17.3   200    28.0   849.3    0.00 
 234   15:20   0.12   77.1    30   19.2   191    29.4   849.3    0.00 
 234   15:30   0.27   77.1    32   18.4   201    26.7   849.3    0.00 
 234   15:40   0.21   78.1    30   19.2   190    29.5   849.2    0.00 
 234   15:50   0.36   78.8    28   20.5   191    30.2   849.1    0.00 
 234   16:00   0.45   78.9    29   18.9   196    26.0   849.3    0.00 
 234   16:10   0.44   79.6    28   21.0   193    28.4   849.2    0.00 
 234   16:20   0.36   78.5    30   16.1   201    23.5   849.2    0.00 
 234   16:30   0.18   78.0    30   18.2   199    24.6   849.1    0.00 
 234   16:40   0.19   76.9    31   17.3   200    27.0   849.0    0.00 
 234   16:50   0.27   77.8    30   20.5   196    29.6   848.7    0.00 
 234   17:00   0.23   77.5    30   20.5   197    28.2   848.6    0.00 
 234   17:10   0.21   77.7    30   19.0   196    26.0   848.5    0.00 
 234   17:20   0.18   77.6    29   20.1   195    27.0   848.5    0.00 
 234   17:30   0.12   77.1    30   20.7   194    29.7   848.5    0.00 
 234   17:40   0.14   77.1    30   20.6   195    29.4   848.4    0.00 
 234   17:50   0.09   76.4    31   19.0   200    27.2   848.4    0.00 
 234   18:00   0.04   76.3    30   21.6   193    30.1   848.2    0.00 
 234   18:10   0.02   76.6    29   24.2   187    34.6   847.9    0.00 
 234   18:20   0.01   75.8    30   21.2   198    30.4   848.0    0.00 
 234   18:30   0.01   75.3    31   20.9   197    30.8   848.0    0.00 
 234   18:40   0.00   75.7    30   21.7   189    32.4   848.0    0.00 
 234   18:50   0.00   75.3    31   21.2   194    29.6   848.2    0.00 

Return to Sand Spring Valley graphs page.


Western Regional Climate Center,wrcc@dri.edu